sensor_id;sensor_type;location;lat;lon;timestamp;P1;durP1;ratioP1;P2;durP2;ratioP2
37407;SDS011;24866;50.248;8.252;2022-07-18T11:56:23;2.25;;;1.00;;
37407;SDS011;24866;50.248;8.252;2022-07-18T11:58:53;3.77;;;1.10;;
37407;SDS011;24866;50.248;8.252;2022-07-18T12:01:29;3.95;;;1.23;;
37407;SDS011;24866;50.248;8.252;2022-07-18T12:04:00;3.00;;;1.20;;
37407;SDS011;24866;50.248;8.252;2022-07-18T12:06:31;4.95;;;1.45;;
37407;SDS011;24866;50.248;8.252;2022-07-18T12:09:01;2.13;;;0.90;;
37407;SDS011;24866;50.248;8.252;2022-07-18T12:11:34;3.42;;;1.20;;
37407;SDS011;24866;50.248;8.252;2022-07-18T12:14:12;4.40;;;1.25;;
37407;SDS011;24866;50.248;8.252;2022-07-18T12:16:45;2.58;;;1.17;;
37407;SDS011;24866;50.248;8.252;2022-07-18T12:19:17;8.68;;;1.73;;
37407;SDS011;24866;50.248;8.252;2022-07-18T12:21:53;2.33;;;1.20;;
37407;SDS011;24866;50.248;8.252;2022-07-18T12:24:25;5.68;;;1.17;;
37407;SDS011;24866;50.248;8.252;2022-07-18T12:30:00;6.03;;;1.67;;
37407;SDS011;24866;50.248;8.252;2022-07-18T12:32:38;3.15;;;1.48;;
37407;SDS011;24866;50.248;8.252;2022-07-18T12:35:10;3.85;;;1.50;;
37407;SDS011;24866;50.248;8.252;2022-07-18T12:37:41;4.78;;;1.50;;
37407;SDS011;24866;50.248;8.252;2022-07-18T12:40:19;4.18;;;1.33;;
37407;SDS011;24866;50.248;8.252;2022-07-18T12:43:01;4.35;;;1.45;;
37407;SDS011;24866;50.248;8.252;2022-07-18T12:45:36;3.05;;;1.42;;
37407;SDS011;24866;50.248;8.252;2022-07-18T12:48:07;9.07;;;1.80;;
37407;SDS011;24866;50.248;8.252;2022-07-18T12:50:39;4.70;;;1.70;;
37407;SDS011;24866;50.248;8.252;2022-07-18T12:53:10;3.92;;;1.35;;
37407;SDS011;24866;50.248;8.252;2022-07-18T12:55:40;4.57;;;1.50;;
37407;SDS011;24866;50.248;8.252;2022-07-18T12:58:11;4.40;;;1.60;;
37407;SDS011;24866;50.248;8.252;2022-07-18T13:00:41;2.20;;;1.23;;
37407;SDS011;24866;50.248;8.252;2022-07-18T13:03:12;5.97;;;1.77;;
37407;SDS011;24866;50.248;8.252;2022-07-18T13:05:42;2.15;;;1.15;;
37407;SDS011;24866;50.248;8.252;2022-07-18T13:08:13;4.90;;;2.25;;
37407;SDS011;24866;50.248;8.252;2022-07-18T13:10:44;4.43;;;1.48;;
37407;SDS011;24866;50.248;8.252;2022-07-18T13:13:15;3.45;;;1.80;;
37407;SDS011;24866;50.248;8.252;2022-07-18T13:15:46;5.15;;;1.63;;
37407;SDS011;24866;50.248;8.252;2022-07-18T13:18:16;4.75;;;1.63;;
37407;SDS011;24866;50.248;8.252;2022-07-18T13:20:47;5.80;;;1.38;;
37407;SDS011;24866;50.248;8.252;2022-07-18T13:23:18;2.78;;;1.20;;
37407;SDS011;24866;50.248;8.252;2022-07-18T13:25:49;4.47;;;1.38;;
37407;SDS011;24866;50.248;8.252;2022-07-18T13:28:20;3.25;;;1.70;;
37407;SDS011;24866;50.248;8.252;2022-07-18T13:30:50;3.53;;;1.42;;
37407;SDS011;24866;50.248;8.252;2022-07-18T13:33:20;3.53;;;1.67;;
37407;SDS011;24866;50.248;8.252;2022-07-18T13:35:50;3.22;;;1.60;;
37407;SDS011;24866;50.248;8.252;2022-07-18T13:38:21;6.00;;;1.60;;
37407;SDS011;24866;50.248;8.252;2022-07-18T13:40:51;4.22;;;1.52;;
37407;SDS011;24866;50.248;8.252;2022-07-18T13:43:22;2.72;;;1.23;;
37407;SDS011;24866;50.248;8.252;2022-07-18T13:45:52;3.70;;;1.70;;
37407;SDS011;24866;50.248;8.252;2022-07-18T13:48:22;3.80;;;1.58;;
37407;SDS011;24866;50.248;8.252;2022-07-18T13:50:52;3.17;;;1.45;;
37407;SDS011;24866;50.248;8.252;2022-07-18T13:53:22;1.98;;;1.20;;
37407;SDS011;24866;50.248;8.252;2022-07-18T13:55:52;7.35;;;1.50;;
37407;SDS011;24866;50.248;8.252;2022-07-18T13:58:24;6.45;;;1.50;;
37407;SDS011;24866;50.248;8.252;2022-07-18T14:00:54;3.25;;;1.70;;
37407;SDS011;24866;50.248;8.252;2022-07-18T14:03:24;3.80;;;1.63;;
37407;SDS011;24866;50.248;8.252;2022-07-18T14:05:54;3.10;;;1.42;;
37407;SDS011;24866;50.248;8.252;2022-07-18T14:08:24;4.57;;;1.40;;
37407;SDS011;24866;50.248;8.252;2022-07-18T14:10:54;3.20;;;1.35;;
37407;SDS011;24866;50.248;8.252;2022-07-18T14:13:26;4.40;;;1.55;;
37407;SDS011;24866;50.248;8.252;2022-07-18T14:15:56;4.28;;;1.65;;
37407;SDS011;24866;50.248;8.252;2022-07-18T14:18:26;3.50;;;1.58;;
37407;SDS011;24866;50.248;8.252;2022-07-18T14:20:56;2.95;;;1.42;;
37407;SDS011;24866;50.248;8.252;2022-07-18T14:23:26;4.15;;;1.48;;
37407;SDS011;24866;50.248;8.252;2022-07-18T14:25:56;3.50;;;1.48;;
37407;SDS011;24866;50.248;8.252;2022-07-18T14:28:28;3.90;;;1.48;;
37407;SDS011;24866;50.248;8.252;2022-07-18T14:30:58;4.22;;;1.60;;
37407;SDS011;24866;50.248;8.252;2022-07-18T14:33:28;3.60;;;1.60;;
37407;SDS011;24866;50.248;8.252;2022-07-18T14:35:58;7.30;;;1.80;;
37407;SDS011;24866;50.248;8.252;2022-07-18T14:38:28;4.85;;;1.60;;
37407;SDS011;24866;50.248;8.252;2022-07-18T14:40:58;2.42;;;1.38;;
37407;SDS011;24866;50.248;8.252;2022-07-18T14:43:29;4.97;;;1.83;;
37407;SDS011;24866;50.248;8.252;2022-07-18T14:45:59;3.73;;;1.50;;
37407;SDS011;24866;50.248;8.252;2022-07-18T14:48:29;3.58;;;1.50;;
37407;SDS011;24866;50.248;8.252;2022-07-18T14:51:00;3.13;;;1.58;;
37407;SDS011;24866;50.248;8.252;2022-07-18T14:53:31;3.60;;;1.75;;
37407;SDS011;24866;50.248;8.252;2022-07-18T14:56:01;4.95;;;1.65;;
37407;SDS011;24866;50.248;8.252;2022-07-18T14:58:32;4.90;;;1.88;;
37407;SDS011;24866;50.248;8.252;2022-07-18T15:01:02;2.63;;;1.63;;
37407;SDS011;24866;50.248;8.252;2022-07-18T15:03:32;2.95;;;1.70;;
37407;SDS011;24866;50.248;8.252;2022-07-18T15:06:03;5.13;;;1.73;;
37407;SDS011;24866;50.248;8.252;2022-07-18T15:08:33;6.05;;;1.52;;
37407;SDS011;24866;50.248;8.252;2022-07-18T15:11:03;3.38;;;1.40;;
37407;SDS011;24866;50.248;8.252;2022-07-18T15:13:35;2.97;;;1.35;;
37407;SDS011;24866;50.248;8.252;2022-07-18T15:16:05;3.65;;;1.58;;
37407;SDS011;24866;50.248;8.252;2022-07-18T15:18:35;6.00;;;1.73;;
37407;SDS011;24866;50.248;8.252;2022-07-18T15:21:05;3.30;;;1.70;;
37407;SDS011;24866;50.248;8.252;2022-07-18T15:23:36;5.30;;;1.70;;
37407;SDS011;24866;50.248;8.252;2022-07-18T15:26:06;4.13;;;1.00;;
37407;SDS011;24866;50.248;8.252;2022-07-18T15:28:37;5.20;;;1.70;;
37407;SDS011;24866;50.248;8.252;2022-07-18T15:31:07;6.30;;;1.90;;
37407;SDS011;24866;50.248;8.252;2022-07-18T15:33:37;6.28;;;1.63;;
37407;SDS011;24866;50.248;8.252;2022-07-18T15:36:07;3.85;;;1.83;;
37407;SDS011;24866;50.248;8.252;2022-07-18T15:38:37;3.53;;;1.63;;
37407;SDS011;24866;50.248;8.252;2022-07-18T15:41:08;4.88;;;1.55;;
37407;SDS011;24866;50.248;8.252;2022-07-18T15:43:40;5.53;;;1.63;;
37407;SDS011;24866;50.248;8.252;2022-07-18T15:46:10;7.55;;;1.90;;
37407;SDS011;24866;50.248;8.252;2022-07-18T15:48:42;4.80;;;1.77;;
37407;SDS011;24866;50.248;8.252;2022-07-18T15:51:13;5.57;;;1.70;;
37407;SDS011;24866;50.248;8.252;2022-07-18T15:53:43;4.05;;;1.40;;
37407;SDS011;24866;50.248;8.252;2022-07-18T15:56:13;5.53;;;1.83;;
37407;SDS011;24866;50.248;8.252;2022-07-18T15:58:44;4.55;;;2.17;;
37407;SDS011;24866;50.248;8.252;2022-07-18T16:01:14;8.77;;;1.77;;
37407;SDS011;24866;50.248;8.252;2022-07-18T16:03:44;4.25;;;1.60;;
37407;SDS011;24866;50.248;8.252;2022-07-18T16:06:14;3.03;;;1.52;;
37407;SDS011;24866;50.248;8.252;2022-07-18T16:08:44;2.95;;;1.38;;
37407;SDS011;24866;50.248;8.252;2022-07-18T16:11:14;4.60;;;1.52;;
37407;SDS011;24866;50.248;8.252;2022-07-18T16:13:46;2.33;;;1.40;;
37407;SDS011;24866;50.248;8.252;2022-07-18T16:16:16;3.22;;;1.77;;
37407;SDS011;24866;50.248;8.252;2022-07-18T16:18:46;3.60;;;1.80;;
37407;SDS011;24866;50.248;8.252;2022-07-18T16:21:16;4.10;;;1.80;;
37407;SDS011;24866;50.248;8.252;2022-07-18T16:23:47;3.15;;;1.60;;
37407;SDS011;24866;50.248;8.252;2022-07-18T16:26:17;2.65;;;1.38;;
37407;SDS011;24866;50.248;8.252;2022-07-18T16:28:48;3.58;;;1.65;;
37407;SDS011;24866;50.248;8.252;2022-07-18T16:31:18;3.97;;;1.60;;
37407;SDS011;24866;50.248;8.252;2022-07-18T16:33:48;3.17;;;1.40;;
37407;SDS011;24866;50.248;8.252;2022-07-18T16:36:19;2.00;;;1.38;;
37407;SDS011;24866;50.248;8.252;2022-07-18T16:38:49;3.47;;;1.98;;
37407;SDS011;24866;50.248;8.252;2022-07-18T16:41:19;3.55;;;1.60;;
37407;SDS011;24866;50.248;8.252;2022-07-18T16:43:51;6.07;;;1.75;;
37407;SDS011;24866;50.248;8.252;2022-07-18T16:46:21;5.60;;;1.60;;
37407;SDS011;24866;50.248;8.252;2022-07-18T16:48:52;5.10;;;1.60;;
37407;SDS011;24866;50.248;8.252;2022-07-18T16:51:22;5.75;;;2.05;;
37407;SDS011;24866;50.248;8.252;2022-07-18T16:53:54;4.70;;;2.00;;
37407;SDS011;24866;50.248;8.252;2022-07-18T16:56:25;3.95;;;1.38;;
37407;SDS011;24866;50.248;8.252;2022-07-18T16:58:58;4.82;;;1.30;;
37407;SDS011;24866;50.248;8.252;2022-07-18T17:03:59;3.67;;;1.40;;
37407;SDS011;24866;50.248;8.252;2022-07-18T17:06:29;3.70;;;1.38;;
37407;SDS011;24866;50.248;8.252;2022-07-18T17:08:59;6.25;;;1.65;;
37407;SDS011;24866;50.248;8.252;2022-07-18T17:11:30;5.53;;;1.80;;
37407;SDS011;24866;50.248;8.252;2022-07-18T17:14:02;4.65;;;1.70;;
37407;SDS011;24866;50.248;8.252;2022-07-18T17:16:33;3.80;;;1.40;;
37407;SDS011;24866;50.248;8.252;2022-07-18T17:19:04;4.30;;;1.50;;
37407;SDS011;24866;50.248;8.252;2022-07-18T17:21:34;3.20;;;1.67;;
37407;SDS011;24866;50.248;8.252;2022-07-18T17:24:05;5.22;;;1.60;;
37407;SDS011;24866;50.248;8.252;2022-07-18T17:26:37;3.10;;;1.50;;
37407;SDS011;24866;50.248;8.252;2022-07-18T17:29:09;3.80;;;1.90;;
37407;SDS011;24866;50.248;8.252;2022-07-18T17:31:40;5.95;;;2.00;;
37407;SDS011;24866;50.248;8.252;2022-07-18T17:34:10;13.23;;;2.17;;
37407;SDS011;24866;50.248;8.252;2022-07-18T17:36:41;4.18;;;1.90;;
37407;SDS011;24866;50.248;8.252;2022-07-18T17:39:15;6.03;;;2.22;;
37407;SDS011;24866;50.248;8.252;2022-07-18T17:41:45;5.05;;;2.22;;
37407;SDS011;24866;50.248;8.252;2022-07-18T17:44:17;5.43;;;2.00;;
37407;SDS011;24866;50.248;8.252;2022-07-18T17:46:52;5.45;;;2.33;;
37407;SDS011;24866;50.248;8.252;2022-07-18T17:49:22;8.83;;;2.30;;
37407;SDS011;24866;50.248;8.252;2022-07-18T17:51:53;5.97;;;2.55;;
37407;SDS011;24866;50.248;8.252;2022-07-18T17:54:23;9.50;;;2.92;;
37407;SDS011;24866;50.248;8.252;2022-07-18T17:56:54;9.98;;;2.63;;
37407;SDS011;24866;50.248;8.252;2022-07-18T17:59:25;14.67;;;2.93;;
37407;SDS011;24866;50.248;8.252;2022-07-18T18:01:56;10.38;;;2.80;;
37407;SDS011;24866;50.248;8.252;2022-07-18T18:04:26;10.90;;;3.22;;
37407;SDS011;24866;50.248;8.252;2022-07-18T18:06:56;7.80;;;2.30;;
37407;SDS011;24866;50.248;8.252;2022-07-18T18:09:27;7.33;;;2.47;;
37407;SDS011;24866;50.248;8.252;2022-07-18T18:11:57;6.13;;;2.08;;
37407;SDS011;24866;50.248;8.252;2022-07-18T18:14:28;5.25;;;2.42;;
37407;SDS011;24866;50.248;8.252;2022-07-18T18:16:59;7.65;;;2.40;;
37407;SDS011;24866;50.248;8.252;2022-07-18T18:19:29;9.38;;;2.55;;
37407;SDS011;24866;50.248;8.252;2022-07-18T18:22:00;9.65;;;1.95;;
37407;SDS011;24866;50.248;8.252;2022-07-18T18:27:01;4.55;;;2.17;;
37407;SDS011;24866;50.248;8.252;2022-07-18T18:29:33;6.65;;;2.28;;
37407;SDS011;24866;50.248;8.252;2022-07-18T18:32:04;8.20;;;2.60;;
37407;SDS011;24866;50.248;8.252;2022-07-18T18:34:34;7.80;;;2.50;;
37407;SDS011;24866;50.248;8.252;2022-07-18T18:37:04;5.90;;;2.05;;
37407;SDS011;24866;50.248;8.252;2022-07-18T18:39:35;8.20;;;2.30;;
37407;SDS011;24866;50.248;8.252;2022-07-18T18:42:09;5.93;;;2.10;;
37407;SDS011;24866;50.248;8.252;2022-07-18T18:44:41;4.53;;;1.83;;
37407;SDS011;24866;50.248;8.252;2022-07-18T18:47:11;6.40;;;2.13;;
37407;SDS011;24866;50.248;8.252;2022-07-18T18:49:41;8.90;;;2.47;;
37407;SDS011;24866;50.248;8.252;2022-07-18T18:52:11;4.47;;;2.05;;
37407;SDS011;24866;50.248;8.252;2022-07-18T18:54:42;6.88;;;2.08;;
37407;SDS011;24866;50.248;8.252;2022-07-18T18:57:12;6.75;;;1.83;;
37407;SDS011;24866;50.248;8.252;2022-07-18T18:59:43;5.45;;;1.80;;
37407;SDS011;24866;50.248;8.252;2022-07-18T19:02:14;3.97;;;2.10;;
37407;SDS011;24866;50.248;8.252;2022-07-18T19:04:45;5.63;;;2.03;;
37407;SDS011;24866;50.248;8.252;2022-07-18T19:07:16;5.00;;;2.30;;
37407;SDS011;24866;50.248;8.252;2022-07-18T19:09:46;7.13;;;2.97;;
37407;SDS011;24866;50.248;8.252;2022-07-18T19:12:16;5.45;;;1.88;;
37407;SDS011;24866;50.248;8.252;2022-07-18T19:14:48;8.82;;;2.20;;
37407;SDS011;24866;50.248;8.252;2022-07-18T19:17:19;8.73;;;1.92;;
37407;SDS011;24866;50.248;8.252;2022-07-18T19:19:49;11.13;;;2.03;;
37407;SDS011;24866;50.248;8.252;2022-07-18T19:22:19;12.32;;;2.65;;
37407;SDS011;24866;50.248;8.252;2022-07-18T19:24:49;6.32;;;2.15;;
37407;SDS011;24866;50.248;8.252;2022-07-18T19:27:19;8.88;;;2.33;;
37407;SDS011;24866;50.248;8.252;2022-07-18T19:29:51;10.70;;;2.38;;
37407;SDS011;24866;50.248;8.252;2022-07-18T19:32:21;10.40;;;2.38;;
37407;SDS011;24866;50.248;8.252;2022-07-18T19:34:51;10.13;;;2.88;;
37407;SDS011;24866;50.248;8.252;2022-07-18T19:37:22;8.95;;;3.22;;
37407;SDS011;24866;50.248;8.252;2022-07-18T19:39:52;9.18;;;2.05;;
37407;SDS011;24866;50.248;8.252;2022-07-18T19:42:22;4.75;;;2.20;;
37407;SDS011;24866;50.248;8.252;2022-07-18T19:44:53;7.90;;;2.20;;
37407;SDS011;24866;50.248;8.252;2022-07-18T19:47:24;11.15;;;2.50;;
37407;SDS011;24866;50.248;8.252;2022-07-18T19:49:53;6.88;;;1.85;;
37407;SDS011;24866;50.248;8.252;2022-07-18T19:52:23;7.40;;;2.40;;
37407;SDS011;24866;50.248;8.252;2022-07-18T19:54:53;8.18;;;2.17;;
37407;SDS011;24866;50.248;8.252;2022-07-18T19:57:24;6.15;;;2.22;;
37407;SDS011;24866;50.248;8.252;2022-07-18T19:59:56;7.60;;;2.00;;
37407;SDS011;24866;50.248;8.252;2022-07-18T20:02:27;7.80;;;1.90;;
37407;SDS011;24866;50.248;8.252;2022-07-18T20:04:57;5.07;;;1.95;;
37407;SDS011;24866;50.248;8.252;2022-07-18T20:07:28;4.30;;;1.85;;
37407;SDS011;24866;50.248;8.252;2022-07-18T20:09:58;4.03;;;1.77;;
37407;SDS011;24866;50.248;8.252;2022-07-18T20:12:28;7.57;;;2.53;;
37407;SDS011;24866;50.248;8.252;2022-07-18T20:15:00;9.02;;;2.63;;
37407;SDS011;24866;50.248;8.252;2022-07-18T20:17:30;4.65;;;1.90;;
37407;SDS011;24866;50.248;8.252;2022-07-18T20:20:01;5.80;;;2.15;;
37407;SDS011;24866;50.248;8.252;2022-07-18T20:22:33;5.53;;;1.73;;
37407;SDS011;24866;50.248;8.252;2022-07-18T20:25:03;9.45;;;2.40;;
37407;SDS011;24866;50.248;8.252;2022-07-18T20:27:34;7.53;;;1.98;;
37407;SDS011;24866;50.248;8.252;2022-07-18T20:30:07;2.83;;;1.77;;
37407;SDS011;24866;50.248;8.252;2022-07-18T20:32:38;4.90;;;1.95;;
37407;SDS011;24866;50.248;8.252;2022-07-18T20:35:10;8.68;;;2.58;;
37407;SDS011;24866;50.248;8.252;2022-07-18T20:40:13;11.88;;;2.35;;
37407;SDS011;24866;50.248;8.252;2022-07-18T20:42:45;8.25;;;2.50;;
37407;SDS011;24866;50.248;8.252;2022-07-18T20:45:20;7.97;;;2.13;;
37407;SDS011;24866;50.248;8.252;2022-07-18T20:47:51;7.32;;;2.72;;
37407;SDS011;24866;50.248;8.252;2022-07-18T20:50:22;4.40;;;1.90;;
37407;SDS011;24866;50.248;8.252;2022-07-18T20:52:52;5.95;;;2.40;;
37407;SDS011;24866;50.248;8.252;2022-07-18T20:55:24;10.75;;;2.42;;
37407;SDS011;24866;50.248;8.252;2022-07-18T20:57:54;3.33;;;1.85;;
37407;SDS011;24866;50.248;8.252;2022-07-18T21:00:26;8.25;;;2.08;;
37407;SDS011;24866;50.248;8.252;2022-07-18T21:02:56;7.55;;;2.40;;
37407;SDS011;24866;50.248;8.252;2022-07-18T21:05:26;16.08;;;2.53;;
37407;SDS011;24866;50.248;8.252;2022-07-18T21:07:56;7.60;;;2.33;;
37407;SDS011;24866;50.248;8.252;2022-07-18T21:10:27;8.98;;;2.15;;
37407;SDS011;24866;50.248;8.252;2022-07-18T21:12:56;5.00;;;2.10;;
37407;SDS011;24866;50.248;8.252;2022-07-18T21:15:29;8.50;;;1.92;;
37407;SDS011;24866;50.248;8.252;2022-07-18T21:17:59;8.40;;;2.80;;
37407;SDS011;24866;50.248;8.252;2022-07-18T21:20:29;9.35;;;2.30;;
37407;SDS011;24866;50.248;8.252;2022-07-18T21:22:59;5.10;;;1.92;;
37407;SDS011;24866;50.248;8.252;2022-07-18T21:25:30;5.25;;;2.13;;
37407;SDS011;24866;50.248;8.252;2022-07-18T21:28:00;6.63;;;1.60;;
37407;SDS011;24866;50.248;8.252;2022-07-18T21:30:32;4.35;;;1.45;;
37407;SDS011;24866;50.248;8.252;2022-07-18T21:33:02;7.47;;;2.05;;
37407;SDS011;24866;50.248;8.252;2022-07-18T21:35:33;3.05;;;1.50;;
37407;SDS011;24866;50.248;8.252;2022-07-18T21:38:04;5.70;;;1.63;;
37407;SDS011;24866;50.248;8.252;2022-07-18T21:40:35;6.63;;;1.85;;
37407;SDS011;24866;50.248;8.252;2022-07-18T21:43:05;6.57;;;1.90;;
37407;SDS011;24866;50.248;8.252;2022-07-18T21:45:36;2.42;;;1.50;;
37407;SDS011;24866;50.248;8.252;2022-07-18T21:48:06;6.30;;;1.98;;
37407;SDS011;24866;50.248;8.252;2022-07-18T21:50:36;5.00;;;1.92;;
37407;SDS011;24866;50.248;8.252;2022-07-18T21:53:06;6.63;;;1.63;;
37407;SDS011;24866;50.248;8.252;2022-07-18T21:55:36;4.68;;;1.80;;
37407;SDS011;24866;50.248;8.252;2022-07-18T21:58:07;6.32;;;2.05;;
37407;SDS011;24866;50.248;8.252;2022-07-18T22:00:38;5.35;;;2.03;;
37407;SDS011;24866;50.248;8.252;2022-07-18T22:03:08;5.00;;;1.80;;
37407;SDS011;24866;50.248;8.252;2022-07-18T22:05:40;6.78;;;1.58;;
37407;SDS011;24866;50.248;8.252;2022-07-18T22:08:10;3.63;;;1.70;;
37407;SDS011;24866;50.248;8.252;2022-07-18T22:10:40;2.83;;;1.70;;
37407;SDS011;24866;50.248;8.252;2022-07-18T22:13:10;11.80;;;2.10;;
37407;SDS011;24866;50.248;8.252;2022-07-18T22:15:42;7.85;;;1.98;;
37407;SDS011;24866;50.248;8.252;2022-07-18T22:18:12;8.82;;;1.90;;
37407;SDS011;24866;50.248;8.252;2022-07-18T22:20:43;5.15;;;2.30;;
37407;SDS011;24866;50.248;8.252;2022-07-18T22:23:13;7.68;;;2.20;;
37407;SDS011;24866;50.248;8.252;2022-07-18T22:25:43;6.07;;;2.08;;
37407;SDS011;24866;50.248;8.252;2022-07-18T22:28:14;4.15;;;1.85;;
37407;SDS011;24866;50.248;8.252;2022-07-18T22:30:45;4.72;;;2.30;;
37407;SDS011;24866;50.248;8.252;2022-07-18T22:33:15;5.00;;;2.08;;
37407;SDS011;24866;50.248;8.252;2022-07-18T22:35:45;4.93;;;1.95;;
37407;SDS011;24866;50.248;8.252;2022-07-18T22:38:15;6.72;;;2.38;;
37407;SDS011;24866;50.248;8.252;2022-07-18T22:40:45;5.30;;;2.30;;
37407;SDS011;24866;50.248;8.252;2022-07-18T22:43:15;4.25;;;2.15;;
37407;SDS011;24866;50.248;8.252;2022-07-18T22:45:46;4.07;;;2.22;;
37407;SDS011;24866;50.248;8.252;2022-07-18T22:48:17;5.18;;;2.13;;
37407;SDS011;24866;50.248;8.252;2022-07-18T22:50:47;3.78;;;1.38;;
37407;SDS011;24866;50.248;8.252;2022-07-18T22:53:17;4.22;;;1.80;;
37407;SDS011;24866;50.248;8.252;2022-07-18T22:55:47;4.78;;;1.88;;
37407;SDS011;24866;50.248;8.252;2022-07-18T22:58:17;4.82;;;1.60;;
37407;SDS011;24866;50.248;8.252;2022-07-18T23:00:49;4.63;;;2.20;;
37407;SDS011;24866;50.248;8.252;2022-07-18T23:03:19;3.35;;;1.98;;
37407;SDS011;24866;50.248;8.252;2022-07-18T23:05:49;5.60;;;2.08;;
37407;SDS011;24866;50.248;8.252;2022-07-18T23:08:19;5.43;;;2.17;;
37407;SDS011;24866;50.248;8.252;2022-07-18T23:10:49;5.30;;;1.77;;
37407;SDS011;24866;50.248;8.252;2022-07-18T23:13:19;4.72;;;1.67;;
37407;SDS011;24866;50.248;8.252;2022-07-18T23:15:50;6.35;;;1.70;;
37407;SDS011;24866;50.248;8.252;2022-07-18T23:18:20;5.38;;;2.15;;
37407;SDS011;24866;50.248;8.252;2022-07-18T23:20:50;5.72;;;1.67;;
37407;SDS011;24866;50.248;8.252;2022-07-18T23:23:20;3.70;;;1.67;;
37407;SDS011;24866;50.248;8.252;2022-07-18T23:25:50;5.28;;;1.88;;
37407;SDS011;24866;50.248;8.252;2022-07-18T23:28:20;4.15;;;2.00;;
37407;SDS011;24866;50.248;8.252;2022-07-18T23:30:51;6.65;;;2.00;;
37407;SDS011;24866;50.248;8.252;2022-07-18T23:33:21;4.78;;;1.73;;
37407;SDS011;24866;50.248;8.252;2022-07-18T23:35:51;5.32;;;2.00;;
37407;SDS011;24866;50.248;8.252;2022-07-18T23:38:21;3.13;;;1.60;;
37407;SDS011;24866;50.248;8.252;2022-07-18T23:40:51;4.18;;;1.80;;
37407;SDS011;24866;50.248;8.252;2022-07-18T23:43:21;5.80;;;1.75;;
37407;SDS011;24866;50.248;8.252;2022-07-18T23:45:52;2.72;;;1.60;;
37407;SDS011;24866;50.248;8.252;2022-07-18T23:48:22;5.47;;;1.80;;
37407;SDS011;24866;50.248;8.252;2022-07-18T23:50:52;5.78;;;2.00;;
37407;SDS011;24866;50.248;8.252;2022-07-18T23:53:22;4.40;;;1.70;;
37407;SDS011;24866;50.248;8.252;2022-07-18T23:55:52;4.93;;;1.88;;
37407;SDS011;24866;50.248;8.252;2022-07-18T23:58:22;5.13;;;1.92;;
